sensor_id;sensor_type;location;lat;lon;timestamp;P1;durP1;ratioP1;P2;durP2;ratioP2
50281;SDS011;36176;51.506;10.272;2024-02-04T00:00:21;13.27;;;11.90;;
50281;SDS011;36176;51.506;10.272;2024-02-04T00:02:49;13.90;;;12.50;;
50281;SDS011;36176;51.506;10.272;2024-02-04T00:05:16;13.37;;;11.87;;
50281;SDS011;36176;51.506;10.272;2024-02-04T00:07:43;13.43;;;12.03;;
50281;SDS011;36176;51.506;10.272;2024-02-04T00:10:10;13.97;;;12.47;;
50281;SDS011;36176;51.506;10.272;2024-02-04T00:12:38;13.43;;;12.13;;
50281;SDS011;36176;51.506;10.272;2024-02-04T00:15:05;14.53;;;13.03;;
50281;SDS011;36176;51.506;10.272;2024-02-04T00:17:32;14.80;;;13.30;;
50281;SDS011;36176;51.506;10.272;2024-02-04T00:20:00;14.00;;;12.60;;
50281;SDS011;36176;51.506;10.272;2024-02-04T00:22:27;13.53;;;12.23;;
50281;SDS011;36176;51.506;10.272;2024-02-04T00:24:55;14.07;;;12.60;;
50281;SDS011;36176;51.506;10.272;2024-02-04T00:27:22;14.47;;;13.03;;
50281;SDS011;36176;51.506;10.272;2024-02-04T00:29:49;14.77;;;12.97;;
50281;SDS011;36176;51.506;10.272;2024-02-04T00:32:16;15.10;;;13.53;;
50281;SDS011;36176;51.506;10.272;2024-02-04T00:34:43;15.70;;;13.47;;
50281;SDS011;36176;51.506;10.272;2024-02-04T00:37:10;13.87;;;11.77;;
50281;SDS011;36176;51.506;10.272;2024-02-04T00:39:38;12.07;;;10.87;;
50281;SDS011;36176;51.506;10.272;2024-02-04T00:42:05;12.57;;;11.17;;
50281;SDS011;36176;51.506;10.272;2024-02-04T00:44:32;12.50;;;11.20;;
50281;SDS011;36176;51.506;10.272;2024-02-04T00:46:59;12.03;;;10.50;;
50281;SDS011;36176;51.506;10.272;2024-02-04T00:49:26;12.27;;;9.70;;
50281;SDS011;36176;51.506;10.272;2024-02-04T00:51:54;11.13;;;8.67;;
50281;SDS011;36176;51.506;10.272;2024-02-04T00:54:21;9.20;;;8.23;;
50281;SDS011;36176;51.506;10.272;2024-02-04T00:56:48;10.33;;;8.77;;
50281;SDS011;36176;51.506;10.272;2024-02-04T00:59:15;10.23;;;9.23;;
50281;SDS011;36176;51.506;10.272;2024-02-04T01:01:42;10.30;;;9.30;;
50281;SDS011;36176;51.506;10.272;2024-02-04T01:04:10;10.60;;;9.50;;
50281;SDS011;36176;51.506;10.272;2024-02-04T01:06:37;12.10;;;10.33;;
50281;SDS011;36176;51.506;10.272;2024-02-04T01:09:22;10.47;;;9.20;;
50281;SDS011;36176;51.506;10.272;2024-02-04T01:11:49;9.77;;;8.70;;
50281;SDS011;36176;51.506;10.272;2024-02-04T01:14:17;10.23;;;8.33;;
50281;SDS011;36176;51.506;10.272;2024-02-04T01:16:44;9.27;;;7.93;;
50281;SDS011;36176;51.506;10.272;2024-02-04T01:19:11;9.43;;;8.30;;
50281;SDS011;36176;51.506;10.272;2024-02-04T01:21:38;9.03;;;8.23;;
50281;SDS011;36176;51.506;10.272;2024-02-04T01:24:05;9.30;;;8.40;;
50281;SDS011;36176;51.506;10.272;2024-02-04T01:26:32;9.80;;;8.80;;
50281;SDS011;36176;51.506;10.272;2024-02-04T01:28:59;10.00;;;9.00;;
50281;SDS011;36176;51.506;10.272;2024-02-04T01:31:26;9.73;;;8.63;;
50281;SDS011;36176;51.506;10.272;2024-02-04T01:33:54;9.40;;;8.40;;
50281;SDS011;36176;51.506;10.272;2024-02-04T01:36:21;8.83;;;7.93;;
50281;SDS011;36176;51.506;10.272;2024-02-04T01:38:49;8.40;;;7.57;;
50281;SDS011;36176;51.506;10.272;2024-02-04T01:41:16;8.07;;;7.07;;
50281;SDS011;36176;51.506;10.272;2024-02-04T01:43:43;8.73;;;7.20;;
50281;SDS011;36176;51.506;10.272;2024-02-04T01:46:10;7.83;;;6.63;;
50281;SDS011;36176;51.506;10.272;2024-02-04T01:48:38;6.50;;;5.90;;
50281;SDS011;36176;51.506;10.272;2024-02-04T01:51:06;5.90;;;5.40;;
50281;SDS011;36176;51.506;10.272;2024-02-04T01:53:33;6.10;;;5.50;;
50281;SDS011;36176;51.506;10.272;2024-02-04T01:56:02;6.00;;;5.07;;
50281;SDS011;36176;51.506;10.272;2024-02-04T01:58:29;4.93;;;4.43;;
50281;SDS011;36176;51.506;10.272;2024-02-04T02:00:56;4.93;;;4.43;;
50281;SDS011;36176;51.506;10.272;2024-02-04T02:03:24;4.70;;;3.90;;
50281;SDS011;36176;51.506;10.272;2024-02-04T02:05:52;3.90;;;3.43;;
50281;SDS011;36176;51.506;10.272;2024-02-04T02:08:19;4.00;;;3.70;;
50281;SDS011;36176;51.506;10.272;2024-02-04T02:10:46;3.90;;;3.60;;
50281;SDS011;36176;51.506;10.272;2024-02-04T02:13:20;5.03;;;3.67;;
50281;SDS011;36176;51.506;10.272;2024-02-04T02:15:58;3.90;;;3.60;;
50281;SDS011;36176;51.506;10.272;2024-02-04T02:18:35;3.67;;;3.33;;
50281;SDS011;36176;51.506;10.272;2024-02-04T02:21:18;4.57;;;3.73;;
50281;SDS011;36176;51.506;10.272;2024-02-04T02:24:04;4.13;;;3.70;;
50281;SDS011;36176;51.506;10.272;2024-02-04T02:26:38;4.13;;;3.73;;
50281;SDS011;36176;51.506;10.272;2024-02-04T02:29:05;4.20;;;3.73;;
50281;SDS011;36176;51.506;10.272;2024-02-04T02:31:33;4.40;;;3.93;;
50281;SDS011;36176;51.506;10.272;2024-02-04T02:34:13;4.80;;;4.30;;
50281;SDS011;36176;51.506;10.272;2024-02-04T02:36:57;4.40;;;4.00;;
50281;SDS011;36176;51.506;10.272;2024-02-04T02:39:41;4.93;;;4.13;;
50281;SDS011;36176;51.506;10.272;2024-02-04T02:42:15;5.03;;;4.53;;
50281;SDS011;36176;51.506;10.272;2024-02-04T02:44:43;5.43;;;4.57;;
50281;SDS011;36176;51.506;10.272;2024-02-04T02:47:11;5.70;;;5.10;;
50281;SDS011;36176;51.506;10.272;2024-02-04T02:49:40;5.97;;;5.37;;
50281;SDS011;36176;51.506;10.272;2024-02-04T02:52:07;6.53;;;5.77;;
50281;SDS011;36176;51.506;10.272;2024-02-04T02:54:35;5.67;;;4.67;;
50281;SDS011;36176;51.506;10.272;2024-02-04T02:57:02;8.17;;;6.67;;
50281;SDS011;36176;51.506;10.272;2024-02-04T02:59:29;7.07;;;6.30;;
50281;SDS011;36176;51.506;10.272;2024-02-04T03:01:56;9.47;;;7.50;;
50281;SDS011;36176;51.506;10.272;2024-02-04T03:04:23;9.23;;;7.30;;
50281;SDS011;36176;51.506;10.272;2024-02-04T03:06:51;8.10;;;7.10;;
50281;SDS011;36176;51.506;10.272;2024-02-04T03:09:18;8.83;;;7.63;;
50281;SDS011;36176;51.506;10.272;2024-02-04T03:11:45;8.40;;;6.60;;
50281;SDS011;36176;51.506;10.272;2024-02-04T03:14:16;11.17;;;8.00;;
50281;SDS011;36176;51.506;10.272;2024-02-04T03:16:44;8.63;;;7.67;;
50281;SDS011;36176;51.506;10.272;2024-02-04T03:19:12;9.50;;;8.17;;
50281;SDS011;36176;51.506;10.272;2024-02-04T03:21:39;8.73;;;7.83;;
50281;SDS011;36176;51.506;10.272;2024-02-04T03:24:06;8.93;;;7.77;;
50281;SDS011;36176;51.506;10.272;2024-02-04T03:26:33;8.60;;;7.47;;
50281;SDS011;36176;51.506;10.272;2024-02-04T03:29:00;9.10;;;8.20;;
50281;SDS011;36176;51.506;10.272;2024-02-04T03:31:27;9.63;;;7.50;;
50281;SDS011;36176;51.506;10.272;2024-02-04T03:33:55;8.80;;;7.30;;
50281;SDS011;36176;51.506;10.272;2024-02-04T03:36:23;7.53;;;6.70;;
50281;SDS011;36176;51.506;10.272;2024-02-04T03:38:51;10.07;;;8.10;;
50281;SDS011;36176;51.506;10.272;2024-02-04T03:41:18;10.67;;;8.20;;
50281;SDS011;36176;51.506;10.272;2024-02-04T03:43:45;10.10;;;8.17;;
50281;SDS011;36176;51.506;10.272;2024-02-04T03:46:13;8.00;;;7.20;;
50281;SDS011;36176;51.506;10.272;2024-02-04T03:48:41;8.33;;;7.33;;
50281;SDS011;36176;51.506;10.272;2024-02-04T03:51:14;9.77;;;7.90;;
50281;SDS011;36176;51.506;10.272;2024-02-04T03:53:43;7.93;;;7.13;;
50281;SDS011;36176;51.506;10.272;2024-02-04T03:56:10;8.17;;;7.30;;
50281;SDS011;36176;51.506;10.272;2024-02-04T03:58:37;7.83;;;7.03;;
50281;SDS011;36176;51.506;10.272;2024-02-04T04:01:04;10.47;;;8.03;;
50281;SDS011;36176;51.506;10.272;2024-02-04T04:03:31;9.20;;;7.53;;
50281;SDS011;36176;51.506;10.272;2024-02-04T04:06:06;8.50;;;7.60;;
50281;SDS011;36176;51.506;10.272;2024-02-04T04:08:33;8.20;;;7.20;;
50281;SDS011;36176;51.506;10.272;2024-02-04T04:11:01;8.97;;;7.50;;
50281;SDS011;36176;51.506;10.272;2024-02-04T04:13:28;8.13;;;7.10;;
50281;SDS011;36176;51.506;10.272;2024-02-04T04:15:55;8.47;;;7.40;;
50281;SDS011;36176;51.506;10.272;2024-02-04T04:18:22;9.70;;;7.33;;
50281;SDS011;36176;51.506;10.272;2024-02-04T04:20:49;8.77;;;7.10;;
50281;SDS011;36176;51.506;10.272;2024-02-04T04:23:16;7.10;;;6.40;;
50281;SDS011;36176;51.506;10.272;2024-02-04T04:25:46;8.40;;;7.00;;
50281;SDS011;36176;51.506;10.272;2024-02-04T04:28:14;8.27;;;6.33;;
50281;SDS011;36176;51.506;10.272;2024-02-04T04:30:41;7.53;;;6.30;;
50281;SDS011;36176;51.506;10.272;2024-02-04T04:33:08;7.63;;;6.83;;
50281;SDS011;36176;51.506;10.272;2024-02-04T04:35:35;6.73;;;6.03;;
50281;SDS011;36176;51.506;10.272;2024-02-04T04:38:02;7.43;;;6.37;;
50281;SDS011;36176;51.506;10.272;2024-02-04T04:40:29;6.33;;;5.67;;
50281;SDS011;36176;51.506;10.272;2024-02-04T04:42:57;6.27;;;5.57;;
50281;SDS011;36176;51.506;10.272;2024-02-04T04:45:24;5.37;;;4.87;;
50281;SDS011;36176;51.506;10.272;2024-02-04T04:47:51;6.63;;;5.63;;
50281;SDS011;36176;51.506;10.272;2024-02-04T04:50:18;6.67;;;5.87;;
50281;SDS011;36176;51.506;10.272;2024-02-04T04:52:45;5.87;;;5.23;;
50281;SDS011;36176;51.506;10.272;2024-02-04T04:55:12;5.60;;;5.10;;
50281;SDS011;36176;51.506;10.272;2024-02-04T04:57:40;6.07;;;5.40;;
50281;SDS011;36176;51.506;10.272;2024-02-04T05:00:07;5.77;;;5.27;;
50281;SDS011;36176;51.506;10.272;2024-02-04T05:02:39;7.30;;;5.17;;
50281;SDS011;36176;51.506;10.272;2024-02-04T05:05:07;5.03;;;4.53;;
50281;SDS011;36176;51.506;10.272;2024-02-04T05:07:34;6.27;;;5.67;;
50281;SDS011;36176;51.506;10.272;2024-02-04T05:10:01;4.97;;;4.57;;
50281;SDS011;36176;51.506;10.272;2024-02-04T05:12:29;6.13;;;5.63;;
50281;SDS011;36176;51.506;10.272;2024-02-04T05:14:56;5.10;;;4.70;;
50281;SDS011;36176;51.506;10.272;2024-02-04T05:17:23;4.80;;;4.30;;
50281;SDS011;36176;51.506;10.272;2024-02-04T05:19:51;4.73;;;4.33;;
50281;SDS011;36176;51.506;10.272;2024-02-04T05:22:18;4.60;;;4.20;;
50281;SDS011;36176;51.506;10.272;2024-02-04T05:24:46;4.20;;;3.90;;
50281;SDS011;36176;51.506;10.272;2024-02-04T05:27:13;4.60;;;4.20;;
50281;SDS011;36176;51.506;10.272;2024-02-04T05:29:40;4.37;;;3.97;;
50281;SDS011;36176;51.506;10.272;2024-02-04T05:32:07;4.33;;;4.00;;
50281;SDS011;36176;51.506;10.272;2024-02-04T05:34:34;5.07;;;4.57;;
50281;SDS011;36176;51.506;10.272;2024-02-04T05:37:01;5.50;;;5.00;;
50281;SDS011;36176;51.506;10.272;2024-02-04T05:39:31;6.80;;;5.70;;
50281;SDS011;36176;51.506;10.272;2024-02-04T05:41:57;6.73;;;6.07;;
50281;SDS011;36176;51.506;10.272;2024-02-04T05:44:24;5.53;;;5.03;;
50281;SDS011;36176;51.506;10.272;2024-02-04T05:46:51;5.50;;;5.10;;
50281;SDS011;36176;51.506;10.272;2024-02-04T05:49:19;4.80;;;4.40;;
50281;SDS011;36176;51.506;10.272;2024-02-04T05:51:46;4.43;;;4.03;;
50281;SDS011;36176;51.506;10.272;2024-02-04T05:54:13;2.60;;;2.40;;
50281;SDS011;36176;51.506;10.272;2024-02-04T05:56:40;2.77;;;2.57;;
50281;SDS011;36176;51.506;10.272;2024-02-04T05:59:08;1.90;;;1.80;;
50281;SDS011;36176;51.506;10.272;2024-02-04T06:01:35;2.53;;;2.00;;
50281;SDS011;36176;51.506;10.272;2024-02-04T06:04:02;1.60;;;1.50;;
50281;SDS011;36176;51.506;10.272;2024-02-04T06:06:29;1.40;;;1.30;;
50281;SDS011;36176;51.506;10.272;2024-02-04T06:08:56;1.50;;;1.40;;
50281;SDS011;36176;51.506;10.272;2024-02-04T06:11:23;1.27;;;1.23;;
50281;SDS011;36176;51.506;10.272;2024-02-04T06:13:50;1.63;;;1.53;;
50281;SDS011;36176;51.506;10.272;2024-02-04T06:16:17;2.43;;;1.50;;
50281;SDS011;36176;51.506;10.272;2024-02-04T06:18:44;1.70;;;1.60;;
50281;SDS011;36176;51.506;10.272;2024-02-04T06:21:11;1.70;;;1.60;;
50281;SDS011;36176;51.506;10.272;2024-02-04T06:23:38;1.70;;;1.60;;
50281;SDS011;36176;51.506;10.272;2024-02-04T06:26:06;1.60;;;1.50;;
50281;SDS011;36176;51.506;10.272;2024-02-04T06:28:34;2.00;;;1.80;;
50281;SDS011;36176;51.506;10.272;2024-02-04T06:31:02;1.90;;;1.80;;
50281;SDS011;36176;51.506;10.272;2024-02-04T06:33:32;1.83;;;1.73;;
50281;SDS011;36176;51.506;10.272;2024-02-04T06:35:59;1.80;;;1.70;;
50281;SDS011;36176;51.506;10.272;2024-02-04T06:38:26;1.83;;;1.73;;
50281;SDS011;36176;51.506;10.272;2024-02-04T06:40:54;2.13;;;1.90;;
50281;SDS011;36176;51.506;10.272;2024-02-04T06:43:21;2.67;;;2.20;;
50281;SDS011;36176;51.506;10.272;2024-02-04T06:45:50;2.30;;;2.10;;
50281;SDS011;36176;51.506;10.272;2024-02-04T06:48:20;2.40;;;2.20;;
50281;SDS011;36176;51.506;10.272;2024-02-04T06:50:48;3.07;;;2.03;;
50281;SDS011;36176;51.506;10.272;2024-02-04T06:53:15;2.50;;;2.30;;
50281;SDS011;36176;51.506;10.272;2024-02-04T06:55:43;2.60;;;2.40;;
50281;SDS011;36176;51.506;10.272;2024-02-04T06:58:11;2.50;;;2.30;;
50281;SDS011;36176;51.506;10.272;2024-02-04T07:00:38;3.00;;;2.80;;
50281;SDS011;36176;51.506;10.272;2024-02-04T07:03:06;3.70;;;3.40;;
50281;SDS011;36176;51.506;10.272;2024-02-04T07:05:35;3.70;;;3.40;;
50281;SDS011;36176;51.506;10.272;2024-02-04T07:08:03;3.53;;;3.30;;
50281;SDS011;36176;51.506;10.272;2024-02-04T07:10:31;3.50;;;3.20;;
50281;SDS011;36176;51.506;10.272;2024-02-04T07:12:59;4.30;;;3.90;;
50281;SDS011;36176;51.506;10.272;2024-02-04T07:15:26;3.07;;;2.87;;
50281;SDS011;36176;51.506;10.272;2024-02-04T07:17:53;2.87;;;2.57;;
50281;SDS011;36176;51.506;10.272;2024-02-04T07:20:21;2.87;;;2.43;;
50281;SDS011;36176;51.506;10.272;2024-02-04T07:22:49;2.70;;;2.50;;
50281;SDS011;36176;51.506;10.272;2024-02-04T07:25:16;2.83;;;2.63;;
50281;SDS011;36176;51.506;10.272;2024-02-04T07:27:43;2.73;;;2.53;;
50281;SDS011;36176;51.506;10.272;2024-02-04T07:30:10;3.10;;;2.63;;
50281;SDS011;36176;51.506;10.272;2024-02-04T07:32:38;3.63;;;2.70;;
50281;SDS011;36176;51.506;10.272;2024-02-04T07:35:07;3.60;;;3.30;;
50281;SDS011;36176;51.506;10.272;2024-02-04T07:37:35;4.57;;;3.97;;
50281;SDS011;36176;51.506;10.272;2024-02-04T07:40:02;4.97;;;4.57;;
50281;SDS011;36176;51.506;10.272;2024-02-04T07:42:30;6.90;;;5.77;;
50281;SDS011;36176;51.506;10.272;2024-02-04T07:44:58;7.50;;;6.77;;
50281;SDS011;36176;51.506;10.272;2024-02-04T07:47:26;7.73;;;6.90;;
50281;SDS011;36176;51.506;10.272;2024-02-04T07:49:54;8.73;;;7.90;;
50281;SDS011;36176;51.506;10.272;2024-02-04T07:52:21;10.63;;;9.63;;
50281;SDS011;36176;51.506;10.272;2024-02-04T07:54:48;12.80;;;11.50;;
50281;SDS011;36176;51.506;10.272;2024-02-04T07:57:15;16.07;;;14.37;;
50281;SDS011;36176;51.506;10.272;2024-02-04T07:59:42;11.37;;;10.27;;
50281;SDS011;36176;51.506;10.272;2024-02-04T08:02:09;11.27;;;10.17;;
50281;SDS011;36176;51.506;10.272;2024-02-04T08:04:39;10.10;;;9.10;;
50281;SDS011;36176;51.506;10.272;2024-02-04T08:07:07;12.43;;;11.13;;
50281;SDS011;36176;51.506;10.272;2024-02-04T08:09:35;11.97;;;10.67;;
50281;SDS011;36176;51.506;10.272;2024-02-04T08:12:02;10.07;;;8.97;;
50281;SDS011;36176;51.506;10.272;2024-02-04T08:14:29;10.40;;;9.40;;
50281;SDS011;36176;51.506;10.272;2024-02-04T08:16:57;9.10;;;8.30;;
50281;SDS011;36176;51.506;10.272;2024-02-04T08:19:24;8.00;;;7.20;;
50281;SDS011;36176;51.506;10.272;2024-02-04T08:21:52;7.23;;;6.53;;
50281;SDS011;36176;51.506;10.272;2024-02-04T08:24:19;6.13;;;5.57;;
50281;SDS011;36176;51.506;10.272;2024-02-04T08:26:47;6.47;;;5.90;;
50281;SDS011;36176;51.506;10.272;2024-02-04T08:29:14;6.07;;;5.57;;
50281;SDS011;36176;51.506;10.272;2024-02-04T08:31:41;5.73;;;5.23;;
50281;SDS011;36176;51.506;10.272;2024-02-04T08:34:08;7.20;;;6.70;;
50281;SDS011;36176;51.506;10.272;2024-02-04T08:36:35;6.67;;;6.07;;
50281;SDS011;36176;51.506;10.272;2024-02-04T08:39:04;7.10;;;6.40;;
50281;SDS011;36176;51.506;10.272;2024-02-04T08:41:32;7.57;;;6.87;;
50281;SDS011;36176;51.506;10.272;2024-02-04T08:44:00;8.70;;;7.80;;
50281;SDS011;36176;51.506;10.272;2024-02-04T08:46:30;9.53;;;8.63;;
50281;SDS011;36176;51.506;10.272;2024-02-04T08:48:57;10.20;;;9.27;;
50281;SDS011;36176;51.506;10.272;2024-02-04T08:51:25;10.43;;;9.47;;
50281;SDS011;36176;51.506;10.272;2024-02-04T08:53:57;11.70;;;10.60;;
50281;SDS011;36176;51.506;10.272;2024-02-04T08:56:24;11.03;;;10.03;;
50281;SDS011;36176;51.506;10.272;2024-02-04T08:58:52;11.73;;;10.63;;
50281;SDS011;36176;51.506;10.272;2024-02-04T09:01:19;12.27;;;11.13;;
50281;SDS011;36176;51.506;10.272;2024-02-04T09:03:46;11.07;;;10.07;;
50281;SDS011;36176;51.506;10.272;2024-02-04T09:06:13;10.30;;;9.40;;
50281;SDS011;36176;51.506;10.272;2024-02-04T09:08:40;9.50;;;8.70;;
50281;SDS011;36176;51.506;10.272;2024-02-04T09:11:07;8.23;;;7.53;;
50281;SDS011;36176;51.506;10.272;2024-02-04T09:13:34;8.33;;;7.53;;
50281;SDS011;36176;51.506;10.272;2024-02-04T09:16:02;10.07;;;8.23;;
50281;SDS011;36176;51.506;10.272;2024-02-04T09:18:30;8.90;;;8.10;;
50281;SDS011;36176;51.506;10.272;2024-02-04T09:20:58;9.47;;;8.57;;
50281;SDS011;36176;51.506;10.272;2024-02-04T09:23:25;8.67;;;7.97;;
50281;SDS011;36176;51.506;10.272;2024-02-04T09:25:53;9.00;;;8.10;;
50281;SDS011;36176;51.506;10.272;2024-02-04T09:28:20;10.40;;;9.37;;
50281;SDS011;36176;51.506;10.272;2024-02-04T09:30:48;9.37;;;8.43;;
50281;SDS011;36176;51.506;10.272;2024-02-04T09:33:15;10.13;;;9.13;;
50281;SDS011;36176;51.506;10.272;2024-02-04T09:35:43;8.00;;;7.30;;
50281;SDS011;36176;51.506;10.272;2024-02-04T09:38:11;8.70;;;7.90;;
50281;SDS011;36176;51.506;10.272;2024-02-04T09:40:41;8.07;;;7.37;;
50281;SDS011;36176;51.506;10.272;2024-02-04T09:43:10;8.20;;;7.50;;
50281;SDS011;36176;51.506;10.272;2024-02-04T09:45:38;8.63;;;7.90;;
50281;SDS011;36176;51.506;10.272;2024-02-04T09:48:07;8.03;;;7.27;;
50281;SDS011;36176;51.506;10.272;2024-02-04T09:50:35;8.53;;;7.73;;
50281;SDS011;36176;51.506;10.272;2024-02-04T09:53:02;8.90;;;8.10;;
50281;SDS011;36176;51.506;10.272;2024-02-04T09:55:33;8.40;;;7.70;;
50281;SDS011;36176;51.506;10.272;2024-02-04T09:58:03;8.63;;;7.93;;
50281;SDS011;36176;51.506;10.272;2024-02-04T10:00:31;9.43;;;8.53;;
50281;SDS011;36176;51.506;10.272;2024-02-04T10:03:01;8.87;;;8.07;;
50281;SDS011;36176;51.506;10.272;2024-02-04T10:05:31;10.83;;;9.73;;
50281;SDS011;36176;51.506;10.272;2024-02-04T10:07:59;10.03;;;9.07;;
50281;SDS011;36176;51.506;10.272;2024-02-04T10:10:26;9.20;;;8.40;;
50281;SDS011;36176;51.506;10.272;2024-02-04T10:12:53;7.80;;;6.47;;
50281;SDS011;36176;51.506;10.272;2024-02-04T10:15:21;7.43;;;6.83;;
50281;SDS011;36176;51.506;10.272;2024-02-04T10:17:48;7.27;;;6.63;;
50281;SDS011;36176;51.506;10.272;2024-02-04T10:20:17;6.97;;;6.27;;
50281;SDS011;36176;51.506;10.272;2024-02-04T10:22:46;7.03;;;6.33;;
50281;SDS011;36176;51.506;10.272;2024-02-04T10:25:14;7.77;;;7.07;;
50281;SDS011;36176;51.506;10.272;2024-02-04T10:27:42;7.77;;;7.07;;
50281;SDS011;36176;51.506;10.272;2024-02-04T10:30:09;7.57;;;6.77;;
50281;SDS011;36176;51.506;10.272;2024-02-04T10:32:37;6.97;;;6.30;;
50281;SDS011;36176;51.506;10.272;2024-02-04T10:35:06;7.17;;;6.57;;
50281;SDS011;36176;51.506;10.272;2024-02-04T10:37:35;9.60;;;7.90;;
50281;SDS011;36176;51.506;10.272;2024-02-04T10:40:03;9.00;;;8.20;;
50281;SDS011;36176;51.506;10.272;2024-02-04T10:42:34;8.67;;;7.93;;
50281;SDS011;36176;51.506;10.272;2024-02-04T10:45:05;7.60;;;7.00;;
50281;SDS011;36176;51.506;10.272;2024-02-04T10:47:36;8.00;;;7.20;;
50281;SDS011;36176;51.506;10.272;2024-02-04T10:50:06;7.63;;;6.93;;
50281;SDS011;36176;51.506;10.272;2024-02-04T10:52:37;7.10;;;6.40;;
50281;SDS011;36176;51.506;10.272;2024-02-04T10:55:07;6.90;;;6.23;;
50281;SDS011;36176;51.506;10.272;2024-02-04T10:57:36;6.80;;;6.20;;
50281;SDS011;36176;51.506;10.272;2024-02-04T11:00:12;7.50;;;6.80;;
50281;SDS011;36176;51.506;10.272;2024-02-04T11:02:41;6.93;;;6.33;;
50281;SDS011;36176;51.506;10.272;2024-02-04T11:05:10;5.70;;;5.13;;
50281;SDS011;36176;51.506;10.272;2024-02-04T11:07:37;5.90;;;5.17;;
50281;SDS011;36176;51.506;10.272;2024-02-04T11:10:05;4.70;;;4.30;;
50281;SDS011;36176;51.506;10.272;2024-02-04T11:12:36;4.53;;;4.13;;
50281;SDS011;36176;51.506;10.272;2024-02-04T11:15:07;3.77;;;3.47;;
50281;SDS011;36176;51.506;10.272;2024-02-04T11:20:21;3.80;;;3.50;;
50281;SDS011;36176;51.506;10.272;2024-02-04T11:26:05;5.00;;;4.30;;
50281;SDS011;36176;51.506;10.272;2024-02-04T11:28:32;4.77;;;4.30;;
50281;SDS011;36176;51.506;10.272;2024-02-04T11:31:01;5.67;;;4.90;;
50281;SDS011;36176;51.506;10.272;2024-02-04T11:33:31;5.37;;;4.70;;
50281;SDS011;36176;51.506;10.272;2024-02-04T11:36:06;5.23;;;4.73;;
50281;SDS011;36176;51.506;10.272;2024-02-04T11:38:47;5.63;;;5.10;;
50281;SDS011;36176;51.506;10.272;2024-02-04T11:41:22;6.17;;;5.47;;
50281;SDS011;36176;51.506;10.272;2024-02-04T11:43:53;6.17;;;5.57;;
50281;SDS011;36176;51.506;10.272;2024-02-04T11:46:32;5.70;;;5.20;;
50281;SDS011;36176;51.506;10.272;2024-02-04T11:49:00;6.33;;;5.20;;
50281;SDS011;36176;51.506;10.272;2024-02-04T11:51:28;6.87;;;5.37;;
50281;SDS011;36176;51.506;10.272;2024-02-04T11:53:55;5.80;;;5.30;;
50281;SDS011;36176;51.506;10.272;2024-02-04T11:56:23;5.80;;;5.30;;
50281;SDS011;36176;51.506;10.272;2024-02-04T11:58:51;6.33;;;5.73;;
50281;SDS011;36176;51.506;10.272;2024-02-04T12:01:21;5.33;;;4.83;;
50281;SDS011;36176;51.506;10.272;2024-02-04T12:03:49;6.13;;;4.90;;
50281;SDS011;36176;51.506;10.272;2024-02-04T12:06:18;5.57;;;4.90;;
50281;SDS011;36176;51.506;10.272;2024-02-04T12:08:46;5.17;;;4.67;;
50281;SDS011;36176;51.506;10.272;2024-02-04T12:11:13;5.37;;;4.87;;
50281;SDS011;36176;51.506;10.272;2024-02-04T12:13:41;6.07;;;5.17;;
50281;SDS011;36176;51.506;10.272;2024-02-04T12:16:10;5.27;;;4.77;;
50281;SDS011;36176;51.506;10.272;2024-02-04T12:18:47;5.13;;;4.73;;
50281;SDS011;36176;51.506;10.272;2024-02-04T12:21:18;5.37;;;4.87;;
50281;SDS011;36176;51.506;10.272;2024-02-04T12:23:45;5.10;;;4.50;;
50281;SDS011;36176;51.506;10.272;2024-02-04T12:26:13;4.20;;;3.80;;
50281;SDS011;36176;51.506;10.272;2024-02-04T12:28:40;4.27;;;3.87;;
50281;SDS011;36176;51.506;10.272;2024-02-04T12:31:07;5.03;;;4.20;;
50281;SDS011;36176;51.506;10.272;2024-02-04T12:33:43;5.93;;;5.33;;
50281;SDS011;36176;51.506;10.272;2024-02-04T12:36:10;3.40;;;3.10;;
50281;SDS011;36176;51.506;10.272;2024-02-04T12:38:38;3.70;;;3.40;;
50281;SDS011;36176;51.506;10.272;2024-02-04T12:41:05;5.20;;;4.70;;
50281;SDS011;36176;51.506;10.272;2024-02-04T12:43:33;4.43;;;4.03;;
50281;SDS011;36176;51.506;10.272;2024-02-04T12:46:02;5.73;;;5.33;;
50281;SDS011;36176;51.506;10.272;2024-02-04T12:48:30;5.93;;;5.43;;
50281;SDS011;36176;51.506;10.272;2024-02-04T12:50:57;6.97;;;6.37;;
50281;SDS011;36176;51.506;10.272;2024-02-04T12:53:28;5.40;;;4.80;;
50281;SDS011;36176;51.506;10.272;2024-02-04T12:55:58;5.00;;;4.50;;
50281;SDS011;36176;51.506;10.272;2024-02-04T12:58:25;4.50;;;4.10;;
50281;SDS011;36176;51.506;10.272;2024-02-04T13:01:00;5.93;;;4.47;;
50281;SDS011;36176;51.506;10.272;2024-02-04T13:03:28;4.93;;;4.20;;
50281;SDS011;36176;51.506;10.272;2024-02-04T13:05:58;5.07;;;4.00;;
50281;SDS011;36176;51.506;10.272;2024-02-04T13:08:25;4.83;;;4.43;;
50281;SDS011;36176;51.506;10.272;2024-02-04T13:10:56;6.13;;;4.30;;
50281;SDS011;36176;51.506;10.272;2024-02-04T13:13:24;5.43;;;4.80;;
50281;SDS011;36176;51.506;10.272;2024-02-04T13:15:51;5.50;;;5.00;;
50281;SDS011;36176;51.506;10.272;2024-02-04T13:18:19;5.37;;;4.20;;
50281;SDS011;36176;51.506;10.272;2024-02-04T13:20:46;4.77;;;4.10;;
50281;SDS011;36176;51.506;10.272;2024-02-04T13:23:13;4.77;;;4.33;;
50281;SDS011;36176;51.506;10.272;2024-02-04T13:25:40;4.73;;;4.33;;
50281;SDS011;36176;51.506;10.272;2024-02-04T13:28:07;4.03;;;3.63;;
50281;SDS011;36176;51.506;10.272;2024-02-04T13:30:35;4.30;;;3.90;;
50281;SDS011;36176;51.506;10.272;2024-02-04T13:33:02;4.20;;;3.90;;
50281;SDS011;36176;51.506;10.272;2024-02-04T13:35:29;3.20;;;2.90;;
50281;SDS011;36176;51.506;10.272;2024-02-04T13:37:57;3.10;;;2.90;;
50281;SDS011;36176;51.506;10.272;2024-02-04T13:40:24;3.10;;;2.90;;
50281;SDS011;36176;51.506;10.272;2024-02-04T13:42:54;3.60;;;3.30;;
50281;SDS011;36176;51.506;10.272;2024-02-04T13:45:21;2.80;;;2.60;;
50281;SDS011;36176;51.506;10.272;2024-02-04T13:47:48;3.20;;;2.90;;
50281;SDS011;36176;51.506;10.272;2024-02-04T13:50:15;2.83;;;2.60;;
50281;SDS011;36176;51.506;10.272;2024-02-04T13:52:43;3.47;;;3.17;;
50281;SDS011;36176;51.506;10.272;2024-02-04T13:55:10;3.80;;;3.47;;
50281;SDS011;36176;51.506;10.272;2024-02-04T13:57:38;3.83;;;3.10;;
50281;SDS011;36176;51.506;10.272;2024-02-04T14:00:05;3.40;;;3.10;;
50281;SDS011;36176;51.506;10.272;2024-02-04T14:02:33;3.43;;;3.23;;
50281;SDS011;36176;51.506;10.272;2024-02-04T14:05:00;3.80;;;3.40;;
50281;SDS011;36176;51.506;10.272;2024-02-04T14:07:27;3.33;;;3.13;;
50281;SDS011;36176;51.506;10.272;2024-02-04T14:09:55;3.37;;;3.07;;
50281;SDS011;36176;51.506;10.272;2024-02-04T14:12:22;3.30;;;3.00;;
50281;SDS011;36176;51.506;10.272;2024-02-04T14:14:50;3.00;;;2.70;;
50281;SDS011;36176;51.506;10.272;2024-02-04T14:17:17;3.40;;;3.07;;
50281;SDS011;36176;51.506;10.272;2024-02-04T14:19:44;3.30;;;3.00;;
50281;SDS011;36176;51.506;10.272;2024-02-04T14:22:11;3.30;;;3.00;;
50281;SDS011;36176;51.506;10.272;2024-02-04T14:24:38;3.20;;;2.90;;
50281;SDS011;36176;51.506;10.272;2024-02-04T14:27:06;3.57;;;3.20;;
50281;SDS011;36176;51.506;10.272;2024-02-04T14:29:33;3.00;;;2.80;;
50281;SDS011;36176;51.506;10.272;2024-02-04T14:32:00;3.20;;;2.90;;
50281;SDS011;36176;51.506;10.272;2024-02-04T14:34:27;3.37;;;3.07;;
50281;SDS011;36176;51.506;10.272;2024-02-04T14:36:55;2.90;;;2.63;;
50281;SDS011;36176;51.506;10.272;2024-02-04T14:39:22;2.37;;;2.17;;
50281;SDS011;36176;51.506;10.272;2024-02-04T14:41:49;2.97;;;2.60;;